Terminal Aerodrome Forecast
Issued by NWS

Home | Current Version | Previous Version | Text Only | Print | Product List | Glossary Off
Versions: 1 2 3 4 5 6 7 8 9 10 11 12 13 14 15 16 17 18 19 20 21 22 23 24 25 26 27 28 29 30 31 32

000
FTUS43 KLOT 261100 RRA
TAFDPA
TAF
KDPA 261145Z 2612/2712 01011KT 5SM -SN OVC040
      TEMPO 2612/2614 2SM -SN
     FM261500 02012KT P6SM VCSH BKN035
     FM261900 35011G17KT P6SM SCT035
     FM270000 33007KT P6SM FEW040=

USA.gov is the U.S. government's official web portal to all federal, state and local government web resources and services.